Latest Weather Observations for Kowanyama

IDQ60801

Issued at 3:42 pm EST Sunday 15 September 2019 (issued every 10 minutes, with the page automatically refreshed every 10 minutes)

About weather observations | Map of weather stations | Latest weather observations for QLD | Other Formats
Station Details ID: 029038 Name: KOWANYAMA AIRPORT Lat: -15.48 Lon: 141.75 Height: 9.6 m
Data from the previous 72 hours. | See also: Recent months at Kowanyama
Date/Time
EST
Temp
°C
App
Temp
°C
Dew
Point
°C
Rel
Hum
%
Delta-T
°C
Wind Press
QNH
hPa
Press
MSL
hPa
Rain since
9am
mm
Dir  Spd
km/h
Gust
km/h
Spd
kts
Gust
kts
15/03:30pm 32.4 28.0 6.6 20 14.0 ENE 19 32 10 17 1014.0 1013.9 0.0
15/03:00pm 32.6 29.0 6.7 20 14.1 E 15 26 8 14 1014.2 1014.1 0.0
15/02:30pm 32.0 27.8 7.6 22 13.4 ESE 19 28 10 15 1014.4 1014.3 0.0
15/02:00pm 31.9 28.6 8.2 23 13.1 ENE 15 26 8 14 1014.9 1014.8 0.0
15/01:30pm 31.4 27.8 8.4 24 12.8 ENE 17 26 9 14 1015.5 1015.4 0.0
15/01:00pm 29.9 25.9 8.9 27 11.6 ESE 20 32 11 17 1016.0 1015.9 0.0
15/12:30pm 29.3 25.0 9.4 29 11.1 E 22 39 12 21 1016.6 1016.5 0.0
15/12:00pm 29.2 25.6 9.9 30 10.8 E 19 32 10 17 1017.2 1017.1 0.0
15/11:30am 28.0 24.1 9.3 31 10.3 ENE 20 35 11 19 1017.8 1017.7 0.0
15/11:00am 27.8 24.1 10.1 33 9.9 ENE 20 32 11 17 1018.5 1018.4 0.0
15/10:30am 26.7 22.1 9.5 34 9.5 ENE 24 39 13 21 1018.9 1018.8 0.0
15/10:00am 26.5 23.1 10.6 37 8.9 E 19 33 10 18 1019.1 1019.0 0.0
15/09:30am 25.2 21.4 11.0 41 8.0 ENE 22 37 12 20 1019.4 1019.3 0.0
15/09:00am 24.3 21.0 11.6 45 7.2 ENE 20 35 11 19 1019.7 1019.6 0.0
15/08:30am 23.3 20.7 12.0 49 6.4 ENE 17 28 9 15 1019.7 1019.6 0.0
15/08:00am 21.5 19.6 11.8 54 5.4 E 13 20 7 11 1019.5 1019.4 0.0
15/07:30am 19.4 18.1 11.4 60 4.4 E 9 15 5 8 1019.2 1019.1 0.0
15/07:00am 16.9 16.1 11.2 69 3.1 E 6 9 3 5 1019.0 1018.9 0.0
15/06:30am 15.6 14.5 10.6 72 2.6 E 7 9 4 5 1018.4 1018.3 0.0
15/06:00am 15.7 14.7 10.2 70 2.9 E 6 7 3 4 1018.1 1018.0 0.0
15/05:30am 16.9 15.6 9.8 63 3.7 E 7 9 4 5 1018.0 1017.9 0.0
15/05:00am 17.7 16.2 9.1 57 4.5 ESE 7 9 4 5 1017.8 1017.7 0.0
15/04:30am 19.1 17.6 9.0 52 5.3 E 7 11 4 6 1017.7 1017.6 0.0
15/04:00am 19.6 18.0 8.9 50 5.6 E 7 11 4 6 1017.5 1017.4 0.0
15/03:30am 19.8 17.7 8.2 47 6.0 ENE 9 13 5 7 1017.1 1017.0 0.0
15/03:00am 20.3 18.1 8.0 45 6.4 ENE 9 13 5 7 1017.2 1017.1 0.0
15/02:30am 20.9 18.7 7.9 43 6.7 ENE 9 15 5 8 1017.2 1017.1 0.0
15/02:00am 21.7 19.0 7.5 40 7.3 ENE 11 17 6 9 1017.6 1017.5 0.0
15/01:30am 22.2 19.1 7.2 38 7.7 ENE 13 20 7 11 1017.9 1017.8 0.0
15/01:00am 22.5 19.3 6.7 36 8.1 ENE 13 20 7 11 1017.8 1017.7 0.0
15/12:30am 22.7 20.2 6.5 35 8.3 ENE 9 17 5 9 1017.7 1017.6 0.0
15/12:00am 23.4 20.4 6.2 33 8.8 NE 11 20 6 11 1017.3 1017.2 0.0
 
Date/Time
EST
Temp
°C
App
Temp
°C
Dew
Point
°C
Rel
Hum
%
Delta-T
°C
Wind Press
QNH
hPa
Press
MSL
hPa
Rain since
9am
mm
Dir  Spd
km/h
Gust
km/h
Spd
kts
Gust
kts
14/11:30pm 24.0 20.7 6.3 32 9.1 NE 13 20 7 11 1017.5 1017.4 0.0
14/11:00pm 23.7 21.2 6.5 33 8.8 NE 9 15 5 8 1017.6 1017.5 0.0
14/10:30pm 24.1 22.0 6.8 33 9.0 NE 7 11 4 6 1017.3 1017.2 0.0
14/10:00pm 25.1 23.1 7.3 32 9.3 ENE 7 11 4 6 1017.3 1017.2 0.0
14/09:30pm 26.0 23.7 7.6 31 9.8 ESE 9 13 5 7 1017.2 1017.1 0.0
14/09:00pm 26.4 24.6 7.9 31 9.9 E 7 13 4 7 1016.8 1016.7 0.0
14/08:30pm 25.9 23.7 8.0 32 9.6 ENE 9 15 5 8 1016.4 1016.3 0.0
14/08:00pm 25.1 23.4 7.7 33 9.2 SE 6 7 3 4 1015.9 1015.8 0.0
14/07:30pm 26.2 24.3 7.7 31 9.9 SE 7 9 4 5 1015.7 1015.6 0.0
14/07:00pm 27.9 26.0 7.7 28 10.9 SE 7 9 4 5 1015.4 1015.3 0.0
14/06:30pm 29.4 26.7 7.3 25 11.9 SE 11 17 6 9 1014.9 1014.8 0.0
14/06:00pm 30.7 27.6 7.2 23 12.7 ESE 13 20 7 11 1014.5 1014.4 0.0
14/05:30pm 31.2 27.9 6.3 21 13.3 E 13 22 7 12 1014.2 1014.1 0.0
14/05:00pm 31.7 27.6 6.0 20 13.7 ESE 17 28 9 15 1014.1 1014.0 0.0
14/04:30pm 32.0 27.9 6.2 20 13.8 ESE 17 28 9 15 1014.0 1013.9 0.0
14/04:00pm 32.1 27.5 5.6 19 14.1 SE 19 30 10 16 1014.0 1013.9 0.0
14/03:30pm 31.9 27.3 5.4 19 14.0 E 19 30 10 16 1014.2 1014.1 0.0
14/03:00pm 31.8 26.2 5.3 19 14.0 ESE 24 37 13 20 1014.2 1014.1 0.0
14/02:30pm 32.3 27.5 5.7 19 14.2 SE 20 35 11 19 1014.3 1014.2 0.0
14/02:00pm 31.7 26.8 5.3 19 13.9 E 20 32 11 17 1015.1 1015.0 0.0
14/01:30pm 31.2 26.6 5.6 20 13.5 ENE 19 32 10 17 1015.7 1015.6 0.0
14/01:00pm 31.3 25.8 5.7 20 13.6 ESE 24 35 13 19 1016.4 1016.3 0.0
14/12:30pm 30.0 23.9 4.6 20 13.1 ESE 26 44 14 24 1017.0 1016.9 0.0
14/12:08pm 29.3 22.7 4.0 20 12.9 ESE 28 46 15 25 1017.6 1017.5 0.0
14/12:00pm 30.1 24.2 4.0 19 13.3 E 24 43 13 23 1017.6 1017.5 0.0
14/11:30am 29.7 22.7 2.1 17 13.6 ESE 28 48 15 26 1018.2 1018.1 0.0
14/11:12am 30.2 23.0 0.7 15 14.3 ESE 28 46 15 25 1018.5 1018.4 0.0
14/11:00am 29.4 22.8 1.8 17 13.5 E 26 41 14 22 1018.7 1018.6 0.0
14/10:30am 28.8 23.2 3.6 20 12.7 E 22 35 12 19 1019.2 1019.1 0.0
14/10:00am 27.6 22.5 4.0 22 11.9 E 20 33 11 18 1019.9 1019.8 0.0
14/09:30am 26.6 21.6 4.4 24 11.2 ENE 20 37 11 20 1020.3 1020.2 0.0
14/09:00am 25.2 20.6 6.4 30 9.7 ENE 20 35 11 19 1020.4 1020.3 0.0
14/08:30am 23.7 19.3 6.5 33 8.8 E 19 32 10 17 1020.2 1020.1 0.0
14/08:00am 20.9 19.0 9.2 47 6.2 ESE 9 13 5 7 1020.1 1020.0 0.0
14/07:30am 18.3 16.8 10.4 60 4.2 SE 9 11 5 6 1019.8 1019.7 0.0
14/07:00am 15.2 13.9 9.8 70 2.8 SE 7 9 4 5 1019.3 1019.2 0.0
14/06:30am 14.3 13.0 9.9 75 2.3 SSE 7 7 4 4 1018.9 1018.8 0.0
14/06:00am 14.3 14.2 9.5 73 2.5 CALM 0 0 0 0 1018.6 1018.5 0.0
14/05:30am 15.2 15.1 9.3 68 3.0 CALM 0 0 0 0 1018.4 1018.3 0.0
14/05:00am 16.3 16.3 9.7 65 3.4 CALM 0 0 0 0 1018.3 1018.2 0.0
14/04:30am 17.1 15.8 9.3 60 4.1 E 6 6 3 3 1018.2 1018.1 0.0
14/04:00am 19.7 18.6 9.9 53 5.2 E 6 7 3 4 1018.2 1018.1 0.0
14/03:30am 19.9 18.6 10.0 53 5.3 ENE 7 11 4 6 1018.2 1018.1 0.0
14/03:00am 20.8 19.5 10.0 50 5.8 ENE 7 11 4 6 1018.2 1018.1 0.0
14/02:30am 21.6 20.0 10.1 48 6.2 ENE 9 11 5 6 1018.4 1018.3 0.0
14/02:00am 22.2 19.8 10.0 46 6.6 ENE 13 22 7 12 1018.4 1018.3 0.0
14/01:30am 22.8 20.5 10.3 45 6.8 NE 13 20 7 11 1018.6 1018.5 0.0
14/01:00am 23.1 20.9 10.9 46 6.8 ENE 13 24 7 13 1018.6 1018.5 0.0
14/12:30am 22.0 20.7 11.4 51 5.9 ENE 9 17 5 9 1018.7 1018.6 0.0
14/12:00am 21.9 20.9 12.2 54 5.5 NE 9 13 5 7 1018.4 1018.3 0.0
 
Date/Time
EST
Temp
°C
App
Temp
°C
Dew
Point
°C
Rel
Hum
%
Delta-T
°C
Wind Press
QNH
hPa
Press
MSL
hPa
Rain since
9am
mm
Dir  Spd
km/h
Gust
km/h
Spd
kts
Gust
kts
13/11:30pm 20.5 20.4 13.9 66 3.8 NE 7 11 4 6 1018.0 1017.9 0.0
13/11:00pm 19.8 20.1 14.6 72 3.0 NNE 6 9 3 5 1018.0 1017.9 0.0
13/10:30pm 20.3 20.1 14.7 70 3.3 ENE 9 26 5 14 1017.7 1017.6 0.0
13/10:00pm 20.9 22.5 14.8 68 3.6 CALM 0 0 0 0 1017.4 1017.3 0.0
13/09:30pm 21.5 21.8 14.9 66 3.9 SW 7 9 4 5 1017.4 1017.3 0.0
13/09:00pm 22.1 22.1 15.2 65 4.1 SW 9 11 5 6 1017.3 1017.2 0.0
13/08:30pm 22.6 22.6 15.2 63 4.4 SW 9 11 5 6 1017.2 1017.1 0.0
13/08:00pm 23.2 22.8 15.3 61 4.7 WSW 11 17 6 9 1016.8 1016.7 0.0
13/07:30pm 24.3 23.6 14.4 54 5.9 WSW 11 15 6 8 1016.4 1016.3 0.0
13/07:00pm 27.6 25.1 6.4 26 11.1 SE 9 11 5 6 1015.8 1015.7 0.0
13/06:30pm 28.6 25.6 6.1 24 11.8 SE 11 15 6 8 1015.3 1015.2 0.0
13/06:00pm 30.5 26.3 5.7 21 13.1 SE 17 22 9 12 1015.1 1015.0 0.0
13/05:30pm 30.8 26.1 5.3 20 13.4 SSE 19 28 10 15 1014.8 1014.7 0.0
13/05:00pm 31.3 28.0 6.4 21 13.4 SE 13 28 7 15 1014.6 1014.5 0.0
13/04:30pm 32.2 27.9 7.1 21 13.7 SE 19 30 10 16 1014.8 1014.7 0.0
13/04:00pm 31.9 27.7 7.5 22 13.4 ESE 19 28 10 15 1014.8 1014.7 0.0
13/03:30pm 31.9 28.7 6.9 21 13.6 ESE 13 24 7 13 1015.0 1014.9 0.0
13/03:00pm 31.8 28.2 6.8 21 13.5 SE 15 26 8 14 1015.2 1015.1 0.0
13/02:30pm 31.2 27.7 7.0 22 13.1 ESE 15 24 8 13 1015.6 1015.5 0.0
13/02:00pm 30.6 26.9 6.5 22 12.9 SE 15 28 8 15 1016.0 1015.9 0.0
13/01:30pm 30.7 25.6 5.9 21 13.2 SSE 22 33 12 18 1016.6 1016.5 0.0
13/01:00pm 31.2 26.8 7.6 23 12.9 SE 20 41 11 22 1017.3 1017.2 0.0
13/12:30pm 29.4 24.8 6.7 24 12.1 SE 20 37 11 20 1017.9 1017.8 0.0
13/12:00pm 29.1 22.8 5.9 23 12.2 SE 28 43 15 23 1018.4 1018.3 0.0
13/11:30am 29.2 24.5 7.7 26 11.7 ESE 22 33 12 18 1019.0 1018.9 0.0
13/11:00am 28.6 24.7 8.8 29 10.9 ESE 19 28 10 15 1019.7 1019.6 0.0
13/10:30am 26.6 22.8 9.0 33 9.6 ESE 19 30 10 16 1020.1 1020.0 0.0
13/10:00am 25.9 22.4 10.1 37 8.7 ESE 19 33 10 18 1020.5 1020.4 0.0
13/09:30am 24.3 21.1 11.3 44 7.3 E 19 28 10 15 1020.7 1020.6 0.0
13/09:00am 24.2 21.7 12.2 47 6.8 ESE 17 30 9 16 1020.8 1020.7 0.0
13/08:30am 22.6 20.4 13.4 56 5.3 ESE 17 26 9 14 1020.8 1020.7 0.0
13/08:00am 21.0 19.7 13.7 63 4.2 ESE 13 17 7 9 1020.7 1020.6 0.0
13/07:30am 19.1 18.9 13.5 70 3.2 SE 7 13 4 7 1020.2 1020.1 0.0
13/07:00am 16.7 15.9 13.0 79 2.1 SE 9 9 5 5 1019.8 1019.7 0.0
13/06:30am 16.8 16.5 12.7 77 2.3 E 6 7 3 4 1019.3 1019.2 0.0
13/06:00am 17.4 16.9 12.7 74 2.6 ESE 7 7 4 4 1018.9 1018.8 0.0
13/05:30am 19.3 19.1 13.5 69 3.3 E 7 11 4 6 1018.5 1018.4 0.0
13/05:00am 19.4 18.9 13.8 70 3.2 E 9 15 5 8 1018.4 1018.3 0.0
13/04:30am 17.5 17.5 13.6 78 2.2 ENE 6 7 3 4 1018.1 1018.0 0.0
13/04:00am 18.1 18.0 13.4 74 2.7 ENE 6 7 3 4 1018.0 1017.9 0.0
13/03:30am 18.7 18.5 12.9 69 3.3 ENE 6 6 3 3 1018.0 1017.9 0.0
13/03:00am 20.0 20.3 13.5 66 3.7 ENE 4 15 2 8 1018.0 1017.9 0.0
13/02:30am 20.0 19.7 12.7 63 4.1 ENE 6 7 3 4 1018.3 1018.2 0.0
13/02:00am 21.0 20.5 12.7 59 4.7 ENE 7 11 4 6 1018.3 1018.2 0.0
13/01:30am 21.0 20.1 12.7 59 4.7 ENE 9 13 5 7 1018.4 1018.3 0.0
13/01:00am 19.6 19.3 11.6 60 4.4 ENE 4 7 2 4 1018.4 1018.3 0.0
13/12:30am 19.5 18.9 12.3 63 4.0 ENE 7 9 4 5 1018.5 1018.4 0.0
13/12:00am 19.7 20.2 12.9 65 3.8 E 2 6 1 3 1018.5 1018.4 0.0
 
Date/Time
EST
Temp
°C
App
Temp
°C
Dew
Point
°C
Rel
Hum
%
Delta-T
°C
Wind Press
QNH
hPa
Press
MSL
hPa
Rain since
9am
mm
Dir  Spd
km/h
Gust
km/h
Spd
kts
Gust
kts
12/11:30pm 20.4 19.9 12.6 61 4.4 E 7 9 4 5 1018.5 1018.4 0.0
12/11:00pm 20.7 20.3 12.9 61 4.4 E 7 11 4 6 1018.5 1018.4 0.0
12/10:30pm 21.3 20.2 13.2 60 4.6 ENE 11 20 6 11 1018.6 1018.5 0.0
12/10:00pm 21.1 20.5 12.3 57 4.9 SSW 7 9 4 5 1017.9 1017.8 0.0
12/09:30pm 21.7 21.1 12.3 55 5.3 SSW 7 11 4 6 1018.0 1017.9 0.0
12/09:00pm 22.3 21.3 12.3 53 5.7 SW 9 13 5 7 1017.9 1017.8 0.0
12/08:30pm 22.8 21.9 12.7 53 5.8 SW 9 13 5 7 1017.6 1017.5 0.0
12/08:00pm 23.4 22.3 13.0 52 6.0 SW 11 15 6 8 1017.3 1017.2 0.0
12/07:30pm 24.9 22.9 8.8 36 8.7 WSW 9 15 5 8 1016.9 1016.8 0.0
12/07:00pm 27.6 25.0 4.0 22 11.9 SSE 7 9 4 5 1016.4 1016.3 0.0
12/06:30pm 28.5 25.0 3.4 20 12.6 SSE 11 15 6 8 1016.1 1016.0 0.0
12/06:00pm 30.2 26.3 3.3 18 13.6 SE 13 17 7 9 1015.8 1015.7 0.0
12/05:30pm 30.7 25.4 2.9 17 14.0 SSE 20 26 11 14 1015.5 1015.4 0.0
12/05:00pm 31.4 25.7 2.6 16 14.5 SE 22 32 12 17 1015.4 1015.3 0.0
12/04:30pm 31.8 26.3 2.0 15 14.9 SE 20 30 11 16 1015.3 1015.2 0.0
12/04:00pm 31.9 27.4 2.1 15 14.9 SSE 15 30 8 16 1015.3 1015.2 0.0

Other formats

Comma delimited format used in spreadsheet applications
http://www.bom.gov.au/fwo/IDQ60801/IDQ60801.94268.axf

JavaScript Object Notation format (JSON) in row-major order
http://www.bom.gov.au/fwo/IDQ60801/IDQ60801.94268.json

Data quality

Most of these data are generated automatically and are frequently updated. Quality checks on data are not normally performed. It is possible for incorrect values to appear. Refer to information at About Latest Weather Observations and please check the disclaimer before using these data.